logo tempoitalia

Diretta Meteo Bratislava Ivanka, Slovacchialunedì 31 agosto ore 07:00

Mappa
Sereno 18 °C Sereno 24 Ore: T.min 17 T.max 31
Ponente Nord-Est Km/h 11.1 Punto di rugiada: 12 °C Umidità: 67% Visibilità: 10 Km
Il sole sorge alle: 06:07 Il sole tramonta alle: 19:35
31 Agosto 2026 07:00 tempo osservato: Sereno Sereno 18 67 1014 vento: Nord NE 11.1
31 Agosto 2026 06:30 tempo osservato: Sereno Sereno 17 67 1014 vento: Nord NE 11.1
31 Agosto 2026 06:00 tempo osservato: Sereno Sereno 17 67 1014 vento: Nord N/NE 11.1
31 Agosto 2026 05:30 tempo osservato: Sereno Sereno 18 63 1014 vento: Nord N/NE 7.4
31 Agosto 2026 05:00 tempo osservato: Sereno Sereno 18 67 1014 vento: Nord N 5.5
31 Agosto 2026 04:30 tempo osservato: Sereno Sereno 18 63 1014 vento: Nord N/NE 7.4
31 Agosto 2026 04:00 tempo osservato: Sereno Sereno 18 67 1015 vento: Nord N 5.5
31 Agosto 2026 03:30 tempo osservato: Sereno Sereno 19 63 1015 vento: Nord N 5.5
31 Agosto 2026 03:00 tempo osservato: Sereno Sereno 18 67 1015 vento: Nord N 3.7
31 Agosto 2026 02:30 tempo osservato: Sereno Sereno 19 63 1015 vento: Nord N 7.4
31 Agosto 2026 02:00 tempo osservato: Sereno Sereno 19 63 1015 vento: Nord N 3.7
31 Agosto 2026 01:30 tempo osservato: Sereno Sereno 19 63 1015 vento: Nord N/NE 7.4
31 Agosto 2026 01:00 tempo osservato: Sereno Sereno 19 63 1015 vento: Nord N 5.5
31 Agosto 2026 00:30 tempo osservato: Sereno Sereno 20 64 1015 vento: Nord N 5.5
31 Agosto 2026 00:00 tempo osservato: Sereno Sereno 21 56 1015 vento: Nord N 7.4
30 Agosto 2026 23:30 tempo osservato: Sereno Sereno 21 56 1015 vento: Nord N 0
30 Agosto 2026 23:00 tempo osservato: Sereno Sereno 21 56 1015 vento: Nord NE 7.4
30 Agosto 2026 22:30 tempo osservato: Sereno Sereno 22 53 1015 vento: Nord N 5.5
30 Agosto 2026 22:00 tempo osservato: Sereno Sereno 22 53 1015 vento: Nord N/NE 7.4
30 Agosto 2026 21:30 tempo osservato: Sereno Sereno 23 49 1015 vento: Nord N/NO 7.4
30 Agosto 2026 21:00 tempo osservato: Sereno Sereno 25 38 1015 vento: Nord N 0
30 Agosto 2026 20:30 tempo osservato: Sereno Sereno 26 36 1014 vento: Nord N 5.5
30 Agosto 2026 20:00 tempo osservato: Sereno Sereno 26 36 1014 vento: Nord SE 9.3
30 Agosto 2026 19:30 tempo osservato: Sereno Sereno 27 32 1014 vento: Nord SE 9.3
30 Agosto 2026 19:00 tempo osservato: Sereno Sereno 29 30 1014 vento: Nord SE 11.1
30 Agosto 2026 18:30 tempo osservato: Sereno Sereno 30 30 1014 vento: Nord S/SO 7.4
30 Agosto 2026 18:00 tempo osservato: Sereno Sereno 31 27 1014 vento: Nord SO 11.1
30 Agosto 2026 17:30 tempo osservato: Sereno Sereno 31 27 1014 vento: Nord SO 7.4
30 Agosto 2026 17:00 tempo osservato: Sereno Sereno 30 30 1014 vento: Nord SO 9.3
30 Agosto 2026 16:30 tempo osservato: Sereno Sereno 31 29 1015 vento: Nord N 9.3
30 Agosto 2026 16:00 tempo osservato: Sereno Sereno 30 28 1015 vento: Nord S 9.3
30 Agosto 2026 15:30 tempo osservato: Sereno Sereno 30 28 1015 vento: Nord O 14.8
30 Agosto 2026 15:00 tempo osservato: Sereno Sereno 30 30 1015 vento: Nord SO 13
30 Agosto 2026 14:30 tempo osservato: Sereno Sereno 30 30 1016 vento: Nord N 7.4
30 Agosto 2026 14:00 tempo osservato: Sereno Sereno 30 30 1016 vento: Nord N 7.4
30 Agosto 2026 13:30 tempo osservato: Sereno Sereno 29 35 1016 vento: Nord N 5.5
30 Agosto 2026 13:00 tempo osservato: Sereno Sereno 28 37 1016 vento: Nord N 7.4
30 Agosto 2026 12:30 tempo osservato: Sereno Sereno 27 39 1017 vento: Nord S 11.1
30 Agosto 2026 12:00 tempo osservato: Sereno Sereno 27 39 1017 vento: Nord N 5.5
30 Agosto 2026 11:30 tempo osservato: Sereno Sereno 26 44 1017 vento: Nord S/SE 7.4
30 Agosto 2026 11:00 tempo osservato: Sereno Sereno 26 44 1017 vento: Nord N 5.5
30 Agosto 2026 10:30 tempo osservato: Sereno Sereno 24 50 1017 vento: Nord N 5.5
30 Agosto 2026 10:00 tempo osservato: Sereno Sereno 23 53 1017 vento: Nord N 1.8
30 Agosto 2026 09:30 tempo osservato: Sereno Sereno 22 60 1017 vento: Nord N 3.7
30 Agosto 2026 09:00 tempo osservato: Sereno Sereno 21 64 1017 vento: Nord N 5.5
30 Agosto 2026 08:30 tempo osservato: Sereno Sereno 19 68 1017 vento: Nord NE 7.4
30 Agosto 2026 08:00 tempo osservato: Sereno Sereno 18 72 1017 vento: Nord N 5.5